createdAt,value
2018-04-23T00:00:27.133Z,0.00
2018-04-23T00:01:02.428Z,0.00
2018-04-23T00:01:37.966Z,0.00
2018-04-23T00:02:13.345Z,0.00
2018-04-23T00:02:48.684Z,0.00
2018-04-23T00:03:24.179Z,0.00
2018-04-23T00:03:59.493Z,0.00
2018-04-23T00:04:36.025Z,0.00
2018-04-23T00:05:11.551Z,0.00
2018-04-23T00:05:46.773Z,0.00
2018-04-23T00:06:22.126Z,0.00
2018-04-23T00:06:57.637Z,0.00
2018-04-23T00:07:32.952Z,0.00
2018-04-23T00:08:08.678Z,0.00
2018-04-23T00:08:44.992Z,0.00
2018-04-23T00:09:20.288Z,0.00
2018-04-23T00:09:55.861Z,0.00
2018-04-23T00:10:31.748Z,0.00
2018-04-23T00:11:07.182Z,0.00
2018-04-23T00:11:42.680Z,0.00
2018-04-23T00:12:17.794Z,0.00
2018-04-23T00:12:53.502Z,0.00
2018-04-23T00:13:28.728Z,0.00
2018-04-23T00:14:04.220Z,0.00
2018-04-23T00:14:39.368Z,0.00
2018-04-23T00:15:14.892Z,0.00
2018-04-23T00:15:52.413Z,0.00
2018-04-23T00:16:27.824Z,0.00
2018-04-23T00:17:03.061Z,0.00
2018-04-23T00:17:38.263Z,0.00
2018-04-23T00:18:13.495Z,0.00
2018-04-23T00:18:49.501Z,0.00
2018-04-23T00:19:24.730Z,0.00
2018-04-23T00:20:00.158Z,0.00
2018-04-23T00:20:36.495Z,0.00
2018-04-23T00:21:11.913Z,0.00
2018-04-23T00:21:47.036Z,0.00
2018-04-23T00:22:22.255Z,0.00
2018-04-23T00:22:57.593Z,0.00
2018-04-23T00:23:32.695Z,0.00
2018-04-23T00:24:08.139Z,0.00
2018-04-23T00:24:43.628Z,0.00
2018-04-23T00:25:18.975Z,0.00
2018-04-23T00:25:54.560Z,0.00
2018-04-23T00:26:29.982Z,0.00
2018-04-23T00:27:05.267Z,0.00
2018-04-23T00:27:40.501Z,0.00
2018-04-23T00:28:15.897Z,0.00
2018-04-23T00:28:51.208Z,0.00
2018-04-23T00:29:26.630Z,0.00
2018-04-23T00:30:01.988Z,0.00
2018-04-23T00:30:37.528Z,0.00
2018-04-23T00:31:13.048Z,0.00
2018-04-23T00:31:48.530Z,0.00
2018-04-23T00:32:24.262Z,0.00
2018-04-23T00:32:59.448Z,0.00
2018-04-23T00:33:34.974Z,0.00
2018-04-23T00:34:10.181Z,0.00
2018-04-23T00:34:45.412Z,0.00
2018-04-23T00:35:20.653Z,0.00
2018-04-23T00:35:56.177Z,0.00
2018-04-23T00:36:31.812Z,0.00
2018-04-23T00:37:07.120Z,0.00
2018-04-23T00:37:42.416Z,0.00
2018-04-23T00:38:17.632Z,0.00
2018-04-23T00:38:53.225Z,0.00
2018-04-23T00:39:28.479Z,0.00
2018-04-23T00:40:03.702Z,0.00
2018-04-23T00:40:41.243Z,0.00
2018-04-23T00:41:17.218Z,0.00
2018-04-23T00:41:52.830Z,0.00
2018-04-23T00:42:28.245Z,0.00
2018-04-23T00:43:03.459Z,0.00
2018-04-23T00:43:38.644Z,0.00
2018-04-23T00:44:14.324Z,0.00
2018-04-23T00:44:49.541Z,0.00
2018-04-23T00:45:25.284Z,0.00
2018-04-23T00:46:01.976Z,0.00
2018-04-23T00:46:37.494Z,0.00
2018-04-23T00:47:12.787Z,0.00
2018-04-23T00:47:48.003Z,0.00
2018-04-23T00:48:23.313Z,0.00
2018-04-23T00:48:58.673Z,0.00
2018-04-23T00:49:34.367Z,0.00
2018-04-23T00:50:09.827Z,0.00
2018-04-23T00:50:45.358Z,0.00
2018-04-23T00:51:21.081Z,0.00
2018-04-23T00:51:56.470Z,0.00
2018-04-23T00:52:32.108Z,0.00
2018-04-23T00:53:07.592Z,0.00
2018-04-23T00:53:43.011Z,0.00
2018-04-23T00:54:18.402Z,0.00
2018-04-23T00:54:54.238Z,0.00
2018-04-23T00:55:29.787Z,0.00
2018-04-23T00:56:04.933Z,0.00
2018-04-23T00:56:40.219Z,0.00
2018-04-23T00:57:15.744Z,0.00
2018-04-23T00:57:50.729Z,0.00
2018-04-23T00:58:26.158Z,0.00
2018-04-23T00:59:01.794Z,0.00
2018-04-23T00:59:37.128Z,0.00
2018-04-23T01:00:12.232Z,0.00
2018-04-23T01:00:47.567Z,0.00
2018-04-23T01:01:23.175Z,0.00
2018-04-23T01:01:58.822Z,0.00
2018-04-23T01:02:34.257Z,0.00
2018-04-23T01:03:09.895Z,0.00
2018-04-23T01:03:45.387Z,0.00
2018-04-23T01:04:20.817Z,0.00
2018-04-23T01:04:55.999Z,0.00
2018-04-23T01:05:31.068Z,0.00
2018-04-23T01:06:06.581Z,0.00
2018-04-23T01:06:41.705Z,0.00
2018-04-23T01:07:17.101Z,0.00
2018-04-23T01:07:52.525Z,0.00
2018-04-23T01:08:27.629Z,0.00
2018-04-23T01:09:03.176Z,0.00
2018-04-23T01:09:38.469Z,0.00
2018-04-23T01:10:13.705Z,0.00
2018-04-23T01:10:49.137Z,0.00
2018-04-23T01:11:27.049Z,0.00
2018-04-23T01:12:02.128Z,0.00
2018-04-23T01:12:40.057Z,0.00
2018-04-23T01:13:15.398Z,0.00
2018-04-23T01:13:50.833Z,0.00
2018-04-23T01:14:26.323Z,0.00
2018-04-23T01:15:01.753Z,0.00
2018-04-23T01:15:37.676Z,0.00
2018-04-23T01:16:12.895Z,0.00
2018-04-23T01:16:55.068Z,0.00
2018-04-23T01:17:30.095Z,0.00
2018-04-23T01:18:05.418Z,0.00
2018-04-23T01:18:40.645Z,0.00
2018-04-23T01:19:16.052Z,0.00
2018-04-23T01:19:51.615Z,0.00
2018-04-23T01:20:26.943Z,0.00
2018-04-23T01:21:03.020Z,0.00
2018-04-23T01:21:38.566Z,0.00
2018-04-23T01:22:13.908Z,0.00
2018-04-23T01:22:50.814Z,0.00
2018-04-23T01:23:26.047Z,0.00
2018-04-23T01:24:01.446Z,0.00
2018-04-23T01:24:37.189Z,0.00
2018-04-23T01:25:12.822Z,0.00
2018-04-23T01:25:48.091Z,0.00
2018-04-23T01:26:23.917Z,0.00
2018-04-23T01:27:00.375Z,0.00
2018-04-23T01:27:35.783Z,0.00
2018-04-23T01:28:11.102Z,0.00
2018-04-23T01:28:46.692Z,0.00
2018-04-23T01:29:22.049Z,0.00
2018-04-23T01:29:58.758Z,0.00
2018-04-23T01:30:34.324Z,0.00
2018-04-23T01:31:09.826Z,0.00
2018-04-23T01:31:45.341Z,0.00
2018-04-23T01:32:20.770Z,0.00
2018-04-23T01:32:56.019Z,0.00
2018-04-23T01:33:33.913Z,0.00
2018-04-23T01:34:09.244Z,0.00
2018-04-23T01:34:44.476Z,0.00
2018-04-23T01:35:19.603Z,0.00
2018-04-23T01:35:54.747Z,0.00
2018-04-23T01:36:30.069Z,0.00
2018-04-23T01:37:05.537Z,0.00
2018-04-23T01:37:41.321Z,0.00
2018-04-23T01:38:16.825Z,0.00
2018-04-23T01:38:52.273Z,0.00
2018-04-23T01:39:27.595Z,0.00
2018-04-23T01:40:02.929Z,0.00
2018-04-23T01:40:38.345Z,0.00
2018-04-23T01:41:17.426Z,0.00
2018-04-23T01:41:52.764Z,0.00
2018-04-23T01:42:28.296Z,0.00
2018-04-23T01:43:03.599Z,0.00
2018-04-23T01:43:38.837Z,0.00
2018-04-23T01:44:14.068Z,0.00
2018-04-23T01:44:50.407Z,0.00
2018-04-23T01:45:27.504Z,0.00
2018-04-23T01:46:03.035Z,0.00
2018-04-23T01:46:38.366Z,0.00
2018-04-23T01:47:14.114Z,0.00
2018-04-23T01:47:50.038Z,0.00
2018-04-23T01:48:25.693Z,0.00
2018-04-23T01:49:00.911Z,0.00
2018-04-23T01:49:36.355Z,0.00
2018-04-23T01:50:11.573Z,0.00
2018-04-23T01:50:47.012Z,0.00
2018-04-23T01:51:22.727Z,0.00
2018-04-23T01:51:57.991Z,0.00
2018-04-23T01:52:32.901Z,0.00
2018-04-23T01:53:08.440Z,0.00
2018-04-23T01:53:44.061Z,0.00
2018-04-23T01:54:19.325Z,0.00
2018-04-23T01:54:55.029Z,0.00
2018-04-23T01:55:30.364Z,0.00
2018-04-23T01:56:05.555Z,0.00
2018-04-23T01:56:41.209Z,0.00
2018-04-23T01:57:16.546Z,0.00
2018-04-23T01:57:51.814Z,0.00
2018-04-23T01:58:27.227Z,0.00
2018-04-23T01:59:02.593Z,0.00
2018-04-23T01:59:40.034Z,0.00
2018-04-23T02:00:15.673Z,0.00
2018-04-23T02:00:51.184Z,0.00
2018-04-23T02:01:26.202Z,0.00
2018-04-23T02:02:01.409Z,0.00
2018-04-23T02:02:36.960Z,0.00
2018-04-23T02:03:14.263Z,0.00
2018-04-23T02:03:49.836Z,0.00
2018-04-23T02:04:28.249Z,0.00
2018-04-23T02:05:03.485Z,0.00
2018-04-23T02:05:38.977Z,0.00
2018-04-23T02:06:14.430Z,0.00
2018-04-23T02:06:50.773Z,0.00
2018-04-23T02:07:27.610Z,0.00
2018-04-23T02:08:03.465Z,0.00
2018-04-23T02:08:39.103Z,0.00
2018-04-23T02:09:14.400Z,0.00
2018-04-23T02:09:53.259Z,0.00
2018-04-23T02:10:28.377Z,0.00
2018-04-23T02:11:04.022Z,0.00
2018-04-23T02:11:39.527Z,0.00
2018-04-23T02:12:15.217Z,0.00
2018-04-23T02:12:50.445Z,0.00
2018-04-23T02:13:25.943Z,0.00
2018-04-23T02:14:01.279Z,0.00
2018-04-23T02:14:37.130Z,0.00
2018-04-23T02:15:12.568Z,0.00
2018-04-23T02:15:48.007Z,0.00
2018-04-23T02:16:23.567Z,0.00
2018-04-23T02:16:59.140Z,0.00
2018-04-23T02:17:34.557Z,0.00
2018-04-23T02:18:10.179Z,0.00
2018-04-23T02:18:46.343Z,0.00
2018-04-23T02:19:22.003Z,0.00
2018-04-23T02:19:57.429Z,0.00
2018-04-23T02:20:32.974Z,0.00
2018-04-23T02:21:08.175Z,0.00
2018-04-23T02:21:44.310Z,0.00
2018-04-23T02:22:19.497Z,0.00
2018-04-23T02:22:57.201Z,0.00
2018-04-23T02:23:32.457Z,0.00
2018-04-23T02:24:07.910Z,0.00
2018-04-23T02:24:44.357Z,0.00
2018-04-23T02:25:23.080Z,0.00
2018-04-23T02:26:01.789Z,0.00
2018-04-23T02:26:37.210Z,0.00
2018-04-23T02:27:12.544Z,0.00
2018-04-23T02:27:47.800Z,0.00
2018-04-23T02:28:23.307Z,0.00
2018-04-23T02:28:58.451Z,0.00
2018-04-23T02:29:33.812Z,0.00
2018-04-23T02:30:09.345Z,0.00
2018-04-23T02:30:44.762Z,0.00
2018-04-23T02:31:20.415Z,0.00
2018-04-23T02:31:56.134Z,0.00
2018-04-23T02:32:31.832Z,0.00
2018-04-23T02:33:06.956Z,0.00
2018-04-23T02:33:42.452Z,0.00
2018-04-23T02:34:17.878Z,0.00
2018-04-23T02:34:53.391Z,0.00
2018-04-23T02:35:28.603Z,0.00
2018-04-23T02:36:03.941Z,0.00
2018-04-23T02:36:39.126Z,0.00
2018-04-23T02:37:14.346Z,0.00
2018-04-23T02:37:52.363Z,0.00
2018-04-23T02:38:27.604Z,0.00
2018-04-23T02:39:02.843Z,0.00
2018-04-23T02:39:38.180Z,0.00
2018-04-23T02:40:13.545Z,0.00
2018-04-23T02:40:48.987Z,0.00
2018-04-23T02:41:24.194Z,0.00
2018-04-23T02:41:59.524Z,0.00
2018-04-23T02:42:34.746Z,0.00
2018-04-23T02:43:09.804Z,0.00
2018-04-23T02:43:45.141Z,0.00
2018-04-23T02:44:22.585Z,0.00
2018-04-23T02:44:58.916Z,0.00
2018-04-23T02:45:34.415Z,0.00
2018-04-23T02:46:09.709Z,0.00
2018-04-23T02:46:45.138Z,0.00
2018-04-23T02:47:20.343Z,0.00
2018-04-23T02:47:55.691Z,0.00
2018-04-23T02:48:31.039Z,0.00
2018-04-23T02:49:06.273Z,0.00
2018-04-23T02:49:41.591Z,0.00
2018-04-23T02:50:16.864Z,0.00
2018-04-23T02:50:52.106Z,0.00
2018-04-23T02:51:27.236Z,0.00
2018-04-23T02:52:02.555Z,0.00
2018-04-23T02:52:38.070Z,0.00
2018-04-23T02:53:13.279Z,0.00
2018-04-23T02:53:48.515Z,0.00
2018-04-23T02:54:24.138Z,0.00
2018-04-23T02:54:59.659Z,0.00
2018-04-23T02:55:35.243Z,0.00
2018-04-23T02:56:10.748Z,0.00
2018-04-23T02:56:46.169Z,0.00
2018-04-23T02:57:21.530Z,0.00
2018-04-23T02:57:56.937Z,0.00
2018-04-23T02:58:32.376Z,0.00
2018-04-23T02:59:07.766Z,0.00
2018-04-23T02:59:43.020Z,0.00
2018-04-23T03:00:18.774Z,0.00
2018-04-23T03:00:54.302Z,0.00
2018-04-23T03:01:31.752Z,0.00
2018-04-23T03:02:07.112Z,0.00
2018-04-23T03:02:42.341Z,0.00
2018-04-23T03:03:18.078Z,0.00
2018-04-23T03:03:54.379Z,0.00
2018-04-23T03:04:29.515Z,0.00
2018-04-23T03:05:04.716Z,0.00
2018-04-23T03:05:40.558Z,0.00
2018-04-23T03:06:15.896Z,0.00
2018-04-23T03:06:51.080Z,0.00
2018-04-23T03:07:26.233Z,0.00
2018-04-23T03:08:01.802Z,0.00
2018-04-23T03:08:37.926Z,0.00
2018-04-23T03:09:13.383Z,0.00
2018-04-23T03:09:48.772Z,0.00
2018-04-23T03:10:24.191Z,0.00
2018-04-23T03:10:59.706Z,0.00
2018-04-23T03:11:34.987Z,0.00
2018-04-23T03:12:11.431Z,0.00
2018-04-23T03:12:46.892Z,0.00
2018-04-23T03:13:24.891Z,0.00
2018-04-23T03:14:00.304Z,0.00
2018-04-23T03:14:37.534Z,0.00
2018-04-23T03:15:14.687Z,0.00
2018-04-23T03:15:53.350Z,0.00
2018-04-23T03:16:28.487Z,0.00
2018-04-23T03:17:04.089Z,0.00
2018-04-23T03:17:39.343Z,0.00
2018-04-23T03:18:14.669Z,0.00
2018-04-23T03:18:50.321Z,0.00
2018-04-23T03:19:25.826Z,0.00
2018-04-23T03:20:01.273Z,0.00
2018-04-23T03:20:37.400Z,0.00
2018-04-23T03:21:12.872Z,0.00
2018-04-23T03:21:48.182Z,0.00
2018-04-23T03:22:23.517Z,0.00
2018-04-23T03:22:58.975Z,0.00
2018-04-23T03:23:34.920Z,0.00
2018-04-23T03:24:10.353Z,0.00
2018-04-23T03:24:45.389Z,0.00
2018-04-23T03:25:20.501Z,0.00
2018-04-23T03:25:56.060Z,0.00
2018-04-23T03:26:31.573Z,0.00
2018-04-23T03:27:06.905Z,0.00
2018-04-23T03:27:42.418Z,0.00
2018-04-23T03:28:17.787Z,0.00
2018-04-23T03:28:53.186Z,0.00
2018-04-23T03:29:28.459Z,0.00
2018-04-23T03:30:03.983Z,0.00
2018-04-23T03:30:42.209Z,0.00
2018-04-23T03:31:20.330Z,0.00
2018-04-23T03:31:55.588Z,0.00
2018-04-23T03:32:30.808Z,0.00
2018-04-23T03:33:06.135Z,0.00
2018-04-23T03:33:42.613Z,0.00
2018-04-23T03:34:17.945Z,0.00
2018-04-23T03:34:53.962Z,0.00
2018-04-23T03:35:29.423Z,0.00
2018-04-23T03:36:04.958Z,0.00
2018-04-23T03:36:40.095Z,0.00
2018-04-23T03:37:15.414Z,0.00
2018-04-23T03:37:52.965Z,0.00
2018-04-23T03:38:28.252Z,0.00
2018-04-23T03:39:03.851Z,0.00
2018-04-23T03:39:41.270Z,0.00
2018-04-23T03:40:16.593Z,0.00
2018-04-23T03:40:56.193Z,0.00
2018-04-23T03:41:31.419Z,0.00
2018-04-23T03:42:06.851Z,0.00
2018-04-23T03:42:42.993Z,0.00
2018-04-23T03:43:18.588Z,0.00
2018-04-23T03:43:53.937Z,0.00
2018-04-23T03:44:29.480Z,0.00
2018-04-23T03:45:04.728Z,0.00
2018-04-23T03:45:39.814Z,0.00
2018-04-23T03:46:15.360Z,0.00
2018-04-23T03:46:51.061Z,0.00
2018-04-23T03:47:26.690Z,0.00
2018-04-23T03:48:02.125Z,4.00
2018-04-23T03:48:37.573Z,4.00
2018-04-23T03:49:13.071Z,4.00
2018-04-23T03:49:48.435Z,4.00
2018-04-23T03:50:23.559Z,0.00
2018-04-23T03:50:58.913Z,4.00
2018-04-23T03:51:35.720Z,4.00
2018-04-23T03:52:11.068Z,4.00
2018-04-23T03:52:48.854Z,8.00
2018-04-23T03:53:24.273Z,4.00
2018-04-23T03:53:59.370Z,8.00
2018-04-23T03:54:34.643Z,8.00
2018-04-23T03:55:09.973Z,8.00
2018-04-23T03:55:45.716Z,8.00
2018-04-23T03:56:20.853Z,12.00
2018-04-23T03:56:56.475Z,12.00
2018-04-23T03:57:31.970Z,12.00
2018-04-23T03:58:07.813Z,12.00
2018-04-23T03:58:44.432Z,16.00
2018-04-23T03:59:19.686Z,16.00
2018-04-23T03:59:55.297Z,16.00
2018-04-23T04:00:30.947Z,20.00
2018-04-23T04:01:06.373Z,20.00
2018-04-23T04:01:41.654Z,20.00
2018-04-23T04:02:17.167Z,24.00
2018-04-23T04:02:52.846Z,24.00
2018-04-23T04:03:28.240Z,28.00
2018-04-23T04:04:03.799Z,28.00
2018-04-23T04:04:39.637Z,32.00
2018-04-23T04:05:15.109Z,32.00
2018-04-23T04:05:50.049Z,32.00
2018-04-23T04:06:25.581Z,32.00
2018-04-23T04:07:00.881Z,32.00
2018-04-23T04:07:36.233Z,32.00
2018-04-23T04:08:11.447Z,36.00
2018-04-23T04:08:47.228Z,36.00
2018-04-23T04:09:22.724Z,40.00
2018-04-23T04:09:57.904Z,44.00
2018-04-23T04:10:33.297Z,44.00
2018-04-23T04:11:11.374Z,52.00
2018-04-23T04:11:46.821Z,52.00
2018-04-23T04:12:22.252Z,60.00
2018-04-23T04:12:58.679Z,68.00
2018-04-23T04:13:34.140Z,76.00
2018-04-23T04:14:09.357Z,76.00
2018-04-23T04:14:46.402Z,80.00
2018-04-23T04:15:22.499Z,80.00
2018-04-23T04:15:57.973Z,84.00
2018-04-23T04:16:33.508Z,84.00
2018-04-23T04:17:08.871Z,88.00
2018-04-23T04:17:44.382Z,92.00
2018-04-23T04:18:19.812Z,100.00
2018-04-23T04:18:55.422Z,104.00
2018-04-23T04:19:30.944Z,112.00
2018-04-23T04:20:06.168Z,116.00
2018-04-23T04:20:44.515Z,120.00
2018-04-23T04:21:19.976Z,132.00
2018-04-23T04:21:55.428Z,140.00
2018-04-23T04:22:30.639Z,152.00
2018-04-23T04:23:05.987Z,168.00
2018-04-23T04:23:42.503Z,188.00
2018-04-23T04:24:17.841Z,204.00
2018-04-23T04:24:53.263Z,216.00
2018-04-23T04:25:33.542Z,232.00
2018-04-23T04:26:08.940Z,240.00
2018-04-23T04:26:43.971Z,244.00
2018-04-23T04:27:19.112Z,252.00
2018-04-23T04:27:55.057Z,264.00
2018-04-23T04:28:31.115Z,276.00
2018-04-23T04:29:06.228Z,292.00
2018-04-23T04:29:42.939Z,308.00
2018-04-23T04:30:18.290Z,332.00
2018-04-23T04:30:54.686Z,352.00
2018-04-23T04:31:30.135Z,372.00
2018-04-23T04:32:05.565Z,392.00
2018-04-23T04:32:40.627Z,408.00
2018-04-23T04:33:15.923Z,416.00
2018-04-23T04:33:51.272Z,420.00
2018-04-23T04:34:26.164Z,428.00
2018-04-23T04:35:01.519Z,440.00
2018-04-23T04:35:36.705Z,464.00
2018-04-23T04:36:13.783Z,496.00
2018-04-23T04:36:49.090Z,528.00
2018-04-23T04:37:24.420Z,528.00
2018-04-23T04:37:59.897Z,488.00
2018-04-23T04:38:35.351Z,416.00
2018-04-23T04:39:10.760Z,356.00
2018-04-23T04:39:45.988Z,320.00
2018-04-23T04:40:21.395Z,296.00
2018-04-23T04:40:56.760Z,284.00
2018-04-23T04:41:32.106Z,280.00
2018-04-23T04:42:07.463Z,288.00
2018-04-23T04:42:45.275Z,280.00
2018-04-23T04:43:21.056Z,288.00
2018-04-23T04:43:59.530Z,280.00
2018-04-23T04:44:35.721Z,284.00
2018-04-23T04:45:11.455Z,292.00
2018-04-23T04:45:47.589Z,304.00
2018-04-23T04:46:26.020Z,328.00
2018-04-23T04:47:01.453Z,364.00
2018-04-23T04:47:37.296Z,392.00
2018-04-23T04:48:12.770Z,408.00
2018-04-23T04:48:47.965Z,412.00
2018-04-23T04:49:23.522Z,408.00
2018-04-23T04:49:58.824Z,400.00
2018-04-23T04:50:33.993Z,408.00
2018-04-23T04:51:09.316Z,420.00
2018-04-23T04:51:44.975Z,432.00
2018-04-23T04:52:20.110Z,420.00
2018-04-23T04:52:55.364Z,388.00
2018-04-23T04:53:30.533Z,368.00
2018-04-23T04:54:05.861Z,368.00
2018-04-23T04:54:41.979Z,372.00
2018-04-23T04:55:19.033Z,380.00
2018-04-23T04:55:54.937Z,420.00
2018-04-23T04:56:30.302Z,456.00
2018-04-23T04:57:05.713Z,496.00
2018-04-23T04:57:41.169Z,520.00
2018-04-23T04:58:16.968Z,572.00
2018-04-23T04:58:52.326Z,656.00
2018-04-23T04:59:27.820Z,752.00
2018-04-23T05:00:03.249Z,840.00
2018-04-23T05:00:38.856Z,936.00
2018-04-23T05:01:13.898Z,1016.00
2018-04-23T05:01:49.391Z,1100.00
2018-04-23T05:02:24.836Z,1164.00
2018-04-23T05:03:00.054Z,1200.00
2018-04-23T05:03:35.610Z,1216.00
2018-04-23T05:04:10.986Z,1208.00
2018-04-23T05:04:46.567Z,1192.00
2018-04-23T05:05:21.978Z,1192.00
2018-04-23T05:05:57.477Z,1104.00
2018-04-23T05:06:32.849Z,1052.00
2018-04-23T05:07:08.367Z,960.00
2018-04-23T05:07:43.772Z,900.00
2018-04-23T05:08:19.134Z,884.00
2018-04-23T05:08:54.237Z,908.00
2018-04-23T05:09:29.497Z,980.00
2018-04-23T05:10:05.207Z,1040.00
2018-04-23T05:10:40.848Z,1108.00
2018-04-23T05:11:16.285Z,1120.00
2018-04-23T05:11:51.676Z,1148.00
2018-04-23T05:12:27.095Z,1248.00
2018-04-23T05:13:02.630Z,1332.00
2018-04-23T05:13:38.446Z,1384.00
2018-04-23T05:14:13.783Z,1460.00
2018-04-23T05:14:49.627Z,1556.00
2018-04-23T05:15:24.967Z,1720.00
2018-04-23T05:16:00.070Z,1828.00
2018-04-23T05:16:35.515Z,1872.00
2018-04-23T05:17:10.801Z,1876.00
2018-04-23T05:17:46.174Z,1916.00
2018-04-23T05:18:21.592Z,1964.00
2018-04-23T05:18:56.977Z,2076.00
2018-04-23T05:19:32.294Z,2000.00
2018-04-23T05:20:07.544Z,1940.00
2018-04-23T05:20:42.749Z,1952.00
2018-04-23T05:21:18.075Z,1964.00
2018-04-23T05:21:53.793Z,1868.00
2018-04-23T05:22:28.937Z,1824.00
2018-04-23T05:23:04.025Z,1956.00
2018-04-23T05:23:39.429Z,2084.00
2018-04-23T05:24:14.676Z,2160.00
2018-04-23T05:24:50.103Z,2360.00
2018-04-23T05:25:25.329Z,2476.00
2018-04-23T05:26:00.683Z,2628.00
2018-04-23T05:26:36.119Z,2904.00
2018-04-23T05:27:11.845Z,3168.00
2018-04-23T05:27:47.360Z,3268.00
2018-04-23T05:28:22.815Z,3248.00
2018-04-23T05:28:58.017Z,3192.00
2018-04-23T05:29:33.176Z,3228.00
2018-04-23T05:30:08.490Z,3316.00
2018-04-23T05:30:43.657Z,3452.00
2018-04-23T05:31:18.965Z,3548.00
2018-04-23T05:31:54.508Z,3696.00
2018-04-23T05:32:29.721Z,3800.00
2018-04-23T05:33:05.574Z,4004.00
2018-04-23T05:33:40.911Z,4192.00
2018-04-23T05:34:16.263Z,4256.00
2018-04-23T05:34:51.784Z,4328.00
2018-04-23T05:35:27.273Z,4460.00
2018-04-23T05:36:02.812Z,4532.00
2018-04-23T05:36:39.248Z,4556.00
2018-04-23T05:37:14.815Z,4712.00
2018-04-23T05:37:50.645Z,4772.00
2018-04-23T05:38:26.393Z,4792.00
2018-04-23T05:39:01.521Z,4768.00
2018-04-23T05:39:36.633Z,4704.00
2018-04-23T05:40:12.281Z,4640.00
2018-04-23T05:40:47.589Z,4676.00
2018-04-23T05:41:22.853Z,4660.00
2018-04-23T05:41:58.148Z,4604.00
2018-04-23T05:42:33.388Z,4560.00
2018-04-23T05:43:08.831Z,4544.00
2018-04-23T05:43:44.437Z,4516.00
2018-04-23T05:44:19.683Z,4636.00
2018-04-23T05:44:54.987Z,4736.00
2018-04-23T05:45:30.425Z,4884.00
2018-04-23T05:46:05.895Z,5088.00
2018-04-23T05:46:41.978Z,4964.00
2018-04-23T05:47:17.238Z,4492.00
2018-04-23T05:47:52.730Z,4156.00
2018-04-23T05:48:28.272Z,4256.00
2018-04-23T05:49:03.588Z,4244.00
2018-04-23T05:49:39.172Z,3984.00
2018-04-23T05:50:14.474Z,3900.00
2018-04-23T05:50:49.703Z,3636.00
2018-04-23T05:51:25.067Z,3604.00
2018-04-23T05:52:00.314Z,3692.00
2018-04-23T05:52:35.634Z,3744.00
2018-04-23T05:53:10.981Z,3736.00
2018-04-23T05:53:46.216Z,4020.00
2018-04-23T05:54:22.058Z,4236.00
2018-04-23T05:54:57.625Z,4480.00
2018-04-23T05:55:32.980Z,4624.00
2018-04-23T05:56:08.291Z,4632.00
2018-04-23T05:56:43.348Z,4516.00
2018-04-23T05:57:18.360Z,4408.00
2018-04-23T05:57:53.788Z,4352.00
2018-04-23T05:58:29.221Z,4360.00
2018-04-23T05:59:04.565Z,4320.00
2018-04-23T05:59:39.755Z,4136.00
2018-04-23T06:00:15.142Z,4012.00
2018-04-23T06:00:50.470Z,4168.00
2018-04-23T06:01:26.210Z,4260.00
2018-04-23T06:02:01.667Z,4404.00
2018-04-23T06:02:37.005Z,4484.00
2018-04-23T06:03:12.498Z,4628.00
2018-04-23T06:03:47.983Z,5016.00
2018-04-23T06:04:23.718Z,5172.00
2018-04-23T06:04:59.353Z,5200.00
2018-04-23T06:05:35.002Z,4964.00
2018-04-23T06:06:10.649Z,4572.00
2018-04-23T06:06:46.078Z,4244.00
2018-04-23T06:07:21.763Z,4228.00
2018-04-23T06:07:57.170Z,4508.00
2018-04-23T06:08:32.305Z,4688.00
2018-04-23T06:09:11.320Z,4528.00
2018-04-23T06:09:46.547Z,4424.00
2018-04-23T06:10:24.257Z,4372.00
2018-04-23T06:11:02.857Z,3936.00
2018-04-23T06:11:38.291Z,3824.00
2018-04-23T06:12:16.751Z,4008.00
2018-04-23T06:12:52.102Z,4160.00
2018-04-23T06:13:27.588Z,4148.00
2018-04-23T06:14:03.226Z,3872.00
2018-04-23T06:14:38.560Z,3704.00
2018-04-23T06:15:13.890Z,3756.00
2018-04-23T06:15:49.206Z,4136.00
2018-04-23T06:16:24.812Z,4388.00
2018-04-23T06:17:00.261Z,4280.00
2018-04-23T06:17:35.493Z,4056.00
2018-04-23T06:18:11.161Z,4016.00
2018-04-23T06:18:46.676Z,4308.00
2018-04-23T06:19:21.839Z,4420.00
2018-04-23T06:19:57.343Z,4652.00
2018-04-23T06:20:32.669Z,4776.00
2018-04-23T06:21:07.881Z,5016.00
2018-04-23T06:21:43.536Z,5416.00
2018-04-23T06:22:18.871Z,6160.00
2018-04-23T06:22:54.246Z,6972.00
2018-04-23T06:23:29.681Z,6752.00
2018-04-23T06:24:05.102Z,6080.00
2018-04-23T06:24:40.815Z,6288.00
2018-04-23T06:25:16.353Z,6792.00
2018-04-23T06:25:55.071Z,6432.00
2018-04-23T06:26:35.211Z,5976.00
2018-04-23T06:27:10.555Z,6188.00
2018-04-23T06:27:46.782Z,6412.00
2018-04-23T06:28:27.896Z,6644.00
2018-04-23T06:29:03.342Z,7684.00
2018-04-23T06:29:38.680Z,9200.00
2018-04-23T06:30:14.102Z,9948.00
2018-04-23T06:30:49.406Z,12540.00
2018-04-23T06:31:24.786Z,10068.00
2018-04-23T06:32:00.495Z,6984.00
2018-04-23T06:32:35.954Z,5960.00
2018-04-23T06:33:11.472Z,5632.00
2018-04-23T06:33:47.244Z,6204.00
2018-04-23T06:34:22.348Z,6080.00
2018-04-23T06:34:58.181Z,7064.00
2018-04-23T06:35:33.680Z,7584.00
2018-04-23T06:36:08.972Z,7912.00
2018-04-23T06:36:44.566Z,7384.00
2018-04-23T06:37:20.038Z,7112.00
2018-04-23T06:37:55.392Z,6056.00
2018-04-23T06:38:31.145Z,5920.00
2018-04-23T06:39:06.294Z,5432.00
2018-04-23T06:39:41.832Z,4828.00
2018-04-23T06:40:17.350Z,4764.00
2018-04-23T06:40:53.094Z,4564.00
2018-04-23T06:41:28.528Z,5276.00
2018-04-23T06:42:03.976Z,5512.00
2018-04-23T06:42:40.287Z,5380.00
2018-04-23T06:43:15.649Z,5292.00
2018-04-23T06:43:50.774Z,4556.00
2018-04-23T06:44:25.936Z,4716.00
2018-04-23T06:45:01.585Z,3968.00
2018-04-23T06:45:37.471Z,3532.00
2018-04-23T06:46:13.188Z,3516.00
2018-04-23T06:46:51.432Z,3828.00
2018-04-23T06:47:27.057Z,3484.00
2018-04-23T06:48:02.517Z,3364.00
2018-04-23T06:48:40.862Z,3680.00
2018-04-23T06:49:16.199Z,3236.00
2018-04-23T06:49:51.453Z,3016.00
2018-04-23T06:50:26.782Z,3112.00
2018-04-23T06:51:02.398Z,3256.00
2018-04-23T06:51:37.739Z,3484.00
2018-04-23T06:52:13.269Z,3924.00
2018-04-23T06:52:48.809Z,4724.00
2018-04-23T06:53:24.145Z,5876.00
2018-04-23T06:53:59.600Z,6956.00
2018-04-23T06:54:34.889Z,7056.00
2018-04-23T06:55:10.362Z,6776.00
2018-04-23T06:55:46.374Z,6008.00
2018-04-23T06:56:21.614Z,5164.00
2018-04-23T06:56:56.820Z,5276.00
2018-04-23T06:57:32.514Z,5012.00
2018-04-23T06:58:08.126Z,5120.00
2018-04-23T06:58:43.265Z,5004.00
2018-04-23T06:59:18.369Z,4276.00
2018-04-23T06:59:53.686Z,3924.00
2018-04-23T07:00:29.220Z,4272.00
2018-04-23T07:01:04.356Z,4668.00
2018-04-23T07:01:42.298Z,5392.00
2018-04-23T07:02:17.629Z,5976.00
2018-04-23T07:02:52.937Z,6260.00
2018-04-23T07:03:28.382Z,6128.00
2018-04-23T07:04:03.486Z,5892.00
2018-04-23T07:04:38.999Z,5696.00
2018-04-23T07:05:14.407Z,5648.00
2018-04-23T07:05:49.776Z,5884.00
2018-04-23T07:06:25.072Z,6224.00
2018-04-23T07:07:01.620Z,6584.00
2018-04-23T07:07:36.936Z,6856.00
2018-04-23T07:08:12.378Z,6016.00
2018-04-23T07:08:47.680Z,5324.00
2018-04-23T07:09:22.921Z,5244.00
2018-04-23T07:09:58.360Z,4440.00
2018-04-23T07:10:33.991Z,4756.00
2018-04-23T07:11:09.555Z,5580.00
2018-04-23T07:11:45.111Z,6164.00
2018-04-23T07:12:20.661Z,7872.00
2018-04-23T07:12:56.737Z,7280.00
2018-04-23T07:13:32.053Z,10232.00
2018-04-23T07:14:07.398Z,7636.00
2018-04-23T07:14:42.835Z,7112.00
2018-04-23T07:15:18.097Z,7216.00
2018-04-23T07:15:54.341Z,6892.00
2018-04-23T07:16:29.791Z,7020.00
2018-04-23T07:17:11.461Z,7380.00
2018-04-23T07:17:46.825Z,6976.00
2018-04-23T07:18:22.015Z,7616.00
2018-04-23T07:18:57.366Z,7412.00
2018-04-23T07:19:32.689Z,6952.00
2018-04-23T07:20:07.953Z,6216.00
2018-04-23T07:20:43.203Z,7004.00
2018-04-23T07:21:18.705Z,9712.00
2018-04-23T07:21:54.118Z,9084.00
2018-04-23T07:22:29.373Z,10908.00
2018-04-23T07:23:04.682Z,7296.00
2018-04-23T07:23:40.195Z,9836.00
2018-04-23T07:24:15.708Z,11004.00
2018-04-23T07:24:51.840Z,11224.00
2018-04-23T07:25:27.681Z,14452.00
2018-04-23T07:26:03.250Z,11412.00
2018-04-23T07:26:38.796Z,11272.00
2018-04-23T07:27:14.264Z,13016.00
2018-04-23T07:27:49.779Z,14168.00
2018-04-23T07:28:25.014Z,12104.00
2018-04-23T07:29:00.327Z,10704.00
2018-04-23T07:29:35.604Z,8596.00
2018-04-23T07:30:11.336Z,16000.00
2018-04-23T07:30:47.897Z,14760.00
2018-04-23T07:31:23.025Z,13696.00
2018-04-23T07:31:58.434Z,12632.00
2018-04-23T07:32:33.546Z,12668.00
2018-04-23T07:33:08.988Z,12616.00
2018-04-23T07:33:44.923Z,11800.00
2018-04-23T07:34:20.374Z,12692.00
2018-04-23T07:34:55.904Z,12956.00